Aérodrome :
LOGIN :

S'inscrire | Disclaimer

   EN    FR    IT 

 










Légende :    VFR   VFR Marginal   IFR   IFR Intensif   IFR Très Intensif
Visi : 
Plafond : 
>= 8 km
>= 3000ft
5 à 8 km
1000 à 3000 ft
1500m à 5 km
500 à 1000 ft
800 à 1500m
200 à 500 ft
< 800m
< 200 ft
Symboles :   Orages  Brouillard  Fortes neiges  Fortes précipitations  Vent > 20 kt
SIGMETs :   Divers  Orages  Givrage  Turbulence  Onde Orograph.  Cendres Volcan.







- Altitude de l'aérodrome : 313 ft
- Code IATA : LEH
- Voir les cartes d'approche


LFOH - Le Havre Octeville

DERNIER METAR :
  • 270600Z AUTO 11007KT CAVOK 09/04 Q1009 NOSIG

METARs EXPIRÉS :
  • 270530Z AUTO 12009KT CAVOK 09/04 Q1009 NOSIG
  • 270500Z AUTO 11007KT CAVOK 09/04 Q1010
  • 270430Z AUTO 10008KT 080V140 CAVOK 09/04 Q1010
  • 270400Z AUTO 10007KT CAVOK 09/04 Q1010
  • 270330Z AUTO 10008KT CAVOK 09/04 Q1011

TAF TAF LFOH
Valide du 27 à 06h jusqu'au 28 à 06h UTC


270500Z 2706/2806 10005KT CAVOK
BECMG 2709/2711 18015KT
TEMPO 2713/2720 22020G30KT 4000 SHRA BKN040TCU
BECMG 2720/2722 24013KT
TEMPO 2720/2806 SHRA BKN013
ATIS : +33 2 35 54 64 93
Pas de NOTAMs connus pour ce terrain.



MET'MAP, la Météo Aéronautique d'un coup d'oeil ! - Copyright ORBIFLY Décembre 2007 - Disclaimer

ORBIFLY MET'MAP TEAM :

Programmation & Développement : Alexandra Zaïnal
Conception & Développement : Baudouin d'Aumeries
Co-Programmation & Développement : Marc-Olivier Méhu
Soutien technique & logistique : Manuel Goepfert

Contact : metmap@orbifly.com




SOURCES & CREDITS :

   NOAA